Aviation Digital Data Service (ADDS)

Output produced by METARs form (1843 UTC 18 June 2019)
found at http://www.aviationweather.gov/metar/data/
 
TAF SUCA 181730Z 1818/1918 30015KT 9999 BKN010 BKN070 TX15/1918Z TN12/1910Z 
     TEMPO 1818/1822 3000 RA BR BKN008 BKN070 
     BECMG 1819/1921 26018G35KT
       
SUDU 181800Z 29013KT 9999 BKN016 BKN080 13/10 Q1011
TAF SUDU 181730Z 1818/1918 33015KT 9999 BKN010 BKN070 TX14/1918Z TN08/1910Z 
     TEMPO 1818/1822 3000 RA BR BKN008 
     BECMG 1904/1906 30015G25KT
       
SUMU 181800Z 35011KT 9999 FEW010 SCT070 14/11 Q1009 NOSIG
TAF SUMU 181730Z 1818/1918 31015KT 9999 BKN010 BKN070 TX14/1918Z TN10/1910Z 
     TEMPO 1818/1822 3000 DZ BR BKN008 BKN070 
     BECMG 1820/1900 27018G35KT
       
SUAA 181800Z 34010G21KT 9999 SCT009 SCT080 13/11 Q1009
TAF SUAA 181730Z 1818/1918 32015KT 9999 BKN010 BKN070 TX14/1918Z TN10/1910Z 
     TEMPO 1818/1822 3000 DZ BR BKN008 BKN070 
     BECMG 1820/1900 28018G35KT
       
SULS 181800Z 30010KT 9999 SCT004 BKN013 BKN070 14/13 Q1010
TAF SULS 181730Z 1818/1918 34015KT 9999 SCT015 BKN070 TX14/1918Z TN09/1910Z 
     TEMPO 1818/1822 3000 RADZ BR BKN005 BKN070 
     BECMG 1820/1900 29020G35KT
       
TAF SURV 181730Z 1818/1918 34010KT 5000 BR BKN010 TX16/1918Z TN07/1910Z 
     TEMPO 1818/1906 3000 DZ BR BKN008 
     BECMG 1818/1820 27010KT
       
SUSO 181800Z 32008KT 9999 BKN017 SCT100 15/11 Q1014
TAF SUSO 181730Z 1818/1918 27010KT 9999 BKN010 TX18/1918Z TN07/1910Z 
     BECMG 1818/1820 3000 DZ BR BKN007 BKN070